Time;durP1;ratioP1;P1;durP2;ratioP2;P2;SDS_P1;SDS_P2;PMS_P1;PMS_P2;Temp;Humidity;BMP_temperature;BMP_pressure;BME280_temperature;BME280_humidity;BME280_pressure;Samples;Min_cycle;Max_cycle;Signal;HPM_P1;HPM_P2
2021/12/07 00:01:26;;;;;;;26.90;16.38;;;2.30;99.90;;;;;;5074760;28;20189;-84
2021/12/07 00:03:54;;;;;;;26.23;15.75;;;2.20;99.90;;;;;;5073165;28;20299;-83
2021/12/07 00:06:21;;;;;;;26.27;17.10;;;2.10;99.90;;;;;;5074827;28;20272;-83
2021/12/07 00:08:53;;;;;;;24.02;14.98;;;1.90;99.90;;;;;;5075079;28;20541;-83
2021/12/07 00:11:20;;;;;;;26.10;16.27;;;1.80;99.90;;;;;;5074984;28;20188;-83
2021/12/07 00:13:47;;;;;;;24.92;15.57;;;1.70;99.90;;;;;;5074211;28;20217;-83
2021/12/07 00:16:15;;;;;;;24.73;15.88;;;1.60;99.90;;;;;;5074822;28;20185;-83
2021/12/07 00:18:42;;;;;;;24.73;16.23;;;1.60;99.90;;;;;;5073553;28;20192;-83
2021/12/07 00:21:09;;;;;;;26.40;15.85;;;1.60;99.90;;;;;;5074607;28;20193;-82
2021/12/07 00:23:37;;;;;;;23.65;14.95;;;1.50;99.90;;;;;;5074382;28;20311;-83
2021/12/07 00:26:04;;;;;;;26.05;15.73;;;1.50;99.90;;;;;;5059560;28;20581;-83
2021/12/07 00:28:31;;;;;;;25.88;16.55;;;1.40;99.90;;;;;;5074677;28;20178;-83
2021/12/07 00:31:08;;;;;;;23.33;15.00;;;1.30;99.90;;;;;;5076179;28;20221;-82
2021/12/07 00:33:44;;;;;;;26.33;15.68;;;1.30;99.90;;;;;;5074801;28;20193;-83
2021/12/07 00:36:11;;;;;;;23.15;14.50;;;1.20;99.90;;;;;;5074227;28;20192;-83
2021/12/07 00:38:37;;;;;;;28.88;15.40;;;1.20;99.90;;;;;;5072156;28;20256;-83
2021/12/07 00:41:04;;;;;;;24.30;14.50;;;1.10;99.90;;;;;;5073970;28;20279;-83
2021/12/07 00:43:33;;;;;;;25.58;16.02;;;1.00;99.90;;;;;;5063945;28;20217;-82
2021/12/07 00:46:01;;;;;;;23.90;14.95;;;1.00;99.90;;;;;;5072058;28;20307;-83
2021/12/07 00:48:29;;;;;;;26.27;14.75;;;1.00;99.90;;;;;;5073540;28;20574;-82
2021/12/07 00:50:58;;;;;;;23.85;14.02;;;0.90;99.90;;;;;;5073106;28;20595;-83
2021/12/07 00:53:27;;;;;;;23.88;15.65;;;0.90;99.90;;;;;;5057890;28;20193;-84
2021/12/07 00:55:57;;;;;;;24.58;15.15;;;0.90;99.90;;;;;;5070426;28;20288;-84
2021/12/07 00:58:25;;;;;;;29.40;16.15;;;0.80;99.90;;;;;;5073680;28;20185;-84
2021/12/07 01:00:54;;;;;;;20.98;13.73;;;0.80;99.90;;;;;;5068968;28;20538;-84
2021/12/07 01:03:21;;;;;;;23.00;14.98;;;0.80;99.90;;;;;;5069174;28;20244;-84
2021/12/07 01:05:51;;;;;;;30.67;15.93;;;0.70;99.90;;;;;;5073753;28;20220;-83
2021/12/07 01:08:48;;;;;;;23.95;14.60;;;0.70;99.90;;;;;;5074445;28;20189;-83
2021/12/07 01:24:55;;;;;;;31.08;15.95;;;0.80;99.90;;;;;;5073973;28;20607;-86
2021/12/07 01:27:21;;;;;;;23.25;14.75;;;0.80;99.90;;;;;;5073618;28;20196;-86
2021/12/07 01:30:00;;;;;;;28.38;14.85;;;0.80;99.90;;;;;;5073674;28;20217;-83
2021/12/07 01:32:42;;;;;;;26.90;16.48;;;0.80;99.90;;;;;;5072742;28;20570;-83
2021/12/07 01:35:41;;;;;;;23.67;14.75;;;0.80;99.90;;;;;;5072823;28;20197;-83
2021/12/07 01:38:27;;;;;;;25.45;15.32;;;0.80;99.90;;;;;;5071956;28;20312;-83
2021/12/07 01:41:08;;;;;;;25.08;14.45;;;0.80;99.90;;;;;;5072337;28;20194;-83
2021/12/07 01:43:57;;;;;;;26.17;16.27;;;0.70;99.90;;;;;;5073401;28;20275;-83
2021/12/07 01:46:44;;;;;;;27.52;15.55;;;0.70;99.90;;;;;;5057310;28;20188;-83
2021/12/07 01:52:26;;;;;;;24.13;14.82;;;0.70;99.90;;;;;;5073601;28;20391;-83
2021/12/07 01:58:06;;;;;;;24.98;14.50;;;0.60;99.90;;;;;;5073116;28;20192;-83
2021/12/07 02:00:34;;;;;;;23.40;15.00;;;0.60;99.90;;;;;;5057572;28;20213;-86
2021/12/07 02:03:00;;;;;;;23.50;13.93;;;0.50;99.90;;;;;;5073820;28;20755;-86
2021/12/07 02:05:27;;;;;;;23.60;13.98;;;0.50;99.90;;;;;;5073176;28;20275;-83
2021/12/07 02:07:54;;;;;;;23.50;14.55;;;0.50;99.90;;;;;;5073151;28;20249;-83
2021/12/07 02:10:26;;;;;;;23.63;13.90;;;0.50;99.90;;;;;;5072216;28;20268;-83
2021/12/07 02:13:01;;;;;;;22.40;14.05;;;0.40;99.90;;;;;;5073161;28;20197;-83
2021/12/07 02:15:29;;;;;;;20.30;14.13;;;0.40;99.90;;;;;;5072575;28;20199;-83
2021/12/07 02:17:56;;;;;;;25.30;13.60;;;0.40;99.90;;;;;;5072894;28;20194;-83
2021/12/07 02:20:25;;;;;;;22.08;13.70;;;0.40;99.90;;;;;;5072863;28;20186;-83
2021/12/07 02:22:53;;;;;;;22.33;14.38;;;0.40;99.90;;;;;;5072776;28;20205;-83
2021/12/07 02:25:20;;;;;;;21.15;13.52;;;0.40;99.90;;;;;;5072887;28;20231;-83
2021/12/07 02:27:50;;;;;;;23.90;14.90;;;0.40;99.90;;;;;;5073076;28;20217;-84
2021/12/07 02:30:19;;;;;;;25.42;14.32;;;0.40;99.90;;;;;;5073485;28;20188;-84
2021/12/07 02:32:47;;;;;;;22.60;13.80;;;0.40;99.90;;;;;;5073292;28;20238;-84
2021/12/07 02:35:21;;;;;;;22.70;13.70;;;0.40;99.90;;;;;;5072737;28;20189;-85
2021/12/07 02:37:48;;;;;;;22.15;14.63;;;0.30;99.90;;;;;;5072850;28;20191;-85
2021/12/07 02:40:17;;;;;;;19.70;13.60;;;0.60;99.90;;;;;;5072963;28;20217;-84
2021/12/07 02:42:44;;;;;;;24.48;13.77;;;0.30;99.90;;;;;;5072615;28;20601;-84
2021/12/07 02:45:12;;;;;;;33.78;14.38;;;0.40;99.90;;;;;;5072969;28;20547;-85
2021/12/07 02:47:39;;;;;;;22.52;14.82;;;0.30;99.90;;;;;;5072782;28;20248;-85
2021/12/07 02:50:07;;;;;;;28.27;15.50;;;0.30;99.90;;;;;;5072127;28;20193;-85
2021/12/07 02:52:34;;;;;;;21.67;14.40;;;0.30;99.90;;;;;;5073182;28;20239;-85
2021/12/07 02:55:01;;;;;;;20.60;13.48;;;-0.10;99.90;;;;;;5072141;28;20209;-84
2021/12/07 02:57:30;;;;;;;22.90;14.20;;;0.30;99.90;;;;;;5072868;28;20189;-84
2021/12/07 03:00:01;;;;;;;25.88;14.43;;;1.30;99.90;;;;;;5072926;28;20201;-84
2021/12/07 03:02:31;;;;;;;29.42;14.48;;;0.70;99.90;;;;;;5056668;28;20514;-84
2021/12/07 03:05:07;;;;;;;24.77;14.93;;;0.30;99.90;;;;;;5072491;28;20278;-83
2021/12/07 03:07:47;;;;;;;27.50;14.50;;;0.40;99.90;;;;;;5072709;28;20181;-84
2021/12/07 03:26:42;;;;;;;25.70;17.00;;;0.80;99.90;;;;;;5062270;28;20626;-84
2021/12/07 03:29:10;;;;;;;26.55;16.52;;;0.80;99.90;;;;;;5076028;28;20668;-84
2021/12/07 03:31:37;;;;;;;26.10;16.33;;;0.90;99.90;;;;;;5076324;28;20213;-84
2021/12/07 03:34:03;;;;;;;27.90;18.27;;;0.90;99.90;;;;;;5076630;28;20272;-84
2021/12/07 03:36:31;;;;;;;27.85;16.38;;;1.00;99.90;;;;;;5076162;28;20216;-84
2021/12/07 03:38:58;;;;;;;27.60;17.05;;;1.00;99.90;;;;;;5076000;28;20219;-84
2021/12/07 03:41:24;;;;;;;25.20;16.35;;;1.00;99.90;;;;;;5075915;28;20583;-84
2021/12/07 03:43:51;;;;;;;32.10;18.85;;;1.00;99.90;;;;;;5075865;28;20300;-84
2021/12/07 03:46:20;;;;;;;26.48;16.73;;;1.00;99.90;;;;;;5075896;28;20220;-84
2021/12/07 03:48:47;;;;;;;27.38;16.27;;;1.00;99.90;;;;;;5076325;28;20215;-84
2021/12/07 03:51:14;;;;;;;24.33;15.38;;;1.10;99.90;;;;;;5076229;28;20185;-85
2021/12/07 03:53:40;;;;;;;27.50;17.30;;;1.20;99.90;;;;;;5076345;28;20617;-85
2021/12/07 03:56:08;;;;;;;25.50;16.38;;;1.20;99.90;;;;;;5076483;28;20193;-84
2021/12/07 03:58:36;;;;;;;28.52;18.05;;;1.10;99.90;;;;;;5076020;28;20251;-84
2021/12/07 04:01:06;;;;;;;27.67;16.23;;;1.10;99.90;;;;;;5076265;28;20223;-84
2021/12/07 04:03:36;;;;;;;26.77;16.27;;;1.20;99.90;;;;;;5076205;28;20209;-84
2021/12/07 04:06:05;;;;;;;23.75;16.40;;;1.90;99.90;;;;;;5076080;28;20181;-84
2021/12/07 04:08:34;;;;;;;27.40;16.60;;;1.20;99.90;;;;;;5075567;28;20185;-85
2021/12/07 04:11:01;;;;;;;26.35;16.85;;;1.70;99.90;;;;;;5075710;28;20228;-83
2021/12/07 04:13:28;;;;;;;26.35;15.73;;;1.20;99.90;;;;;;5075042;28;20220;-83
2021/12/07 04:15:57;;;;;;;27.67;17.58;;;1.30;99.90;;;;;;5075716;28;20186;-83
2021/12/07 04:18:24;;;;;;;26.20;17.25;;;1.30;99.90;;;;;;5075050;28;20204;-83
2021/12/07 04:20:52;;;;;;;28.75;17.13;;;1.30;99.90;;;;;;5075138;28;20196;-84
2021/12/07 04:23:18;;;;;;;25.10;17.58;;;1.30;99.90;;;;;;5075097;28;20731;-84
2021/12/07 04:25:45;;;;;;;30.60;17.33;;;1.30;99.90;;;;;;5075517;28;20213;-84
2021/12/07 04:28:11;;;;;;;26.52;17.33;;;1.20;99.90;;;;;;5074996;28;20692;-84
2021/12/07 04:30:42;;;;;;;28.33;18.30;;;1.80;99.90;;;;;;5075386;28;20213;-84
2021/12/07 04:33:11;;;;;;;27.75;17.85;;;1.30;99.90;;;;;;5074856;28;20213;-84
2021/12/07 04:35:39;;;;;;;27.75;17.05;;;1.40;99.90;;;;;;5075194;28;20591;-86
2021/12/07 04:38:07;;;;;;;30.15;17.45;;;1.40;99.90;;;;;;5074776;28;20275;-86
2021/12/07 04:40:34;;;;;;;30.25;17.60;;;1.40;99.90;;;;;;5075327;28;20231;-84
2021/12/07 04:43:03;;;;;;;29.88;17.40;;;1.50;99.90;;;;;;5075345;28;20200;-85
2021/12/07 04:45:37;;;;;;;23.48;16.15;;;1.40;99.90;;;;;;5068289;28;20248;-84
2021/12/07 04:48:28;;;;;;;28.77;18.85;;;1.40;99.90;;;;;;5075156;28;20186;-84
2021/12/07 04:59:25;;;;;;;31.85;18.60;;;1.30;99.90;;;;;;5054663;28;20192;-85
2021/12/07 05:01:52;;;;;;;28.60;17.40;;;1.30;99.90;;;;;;5061915;28;20218;-89
2021/12/07 05:04:19;;;;;;;31.48;17.98;;;1.30;99.90;;;;;;5073846;28;20248;-87
2021/12/07 05:06:49;;;;;;;30.88;18.67;;;1.30;99.90;;;;;;5074947;28;20268;-87
2021/12/07 05:09:42;;;;;;;31.23;18.27;;;1.30;99.90;;;;;;5074334;28;20185;-86
2021/12/07 05:15:02;;;;;;;29.40;17.90;;;1.30;99.90;;;;;;5070323;28;20276;-83
2021/12/07 05:17:56;;;;;;;26.52;18.13;;;1.30;99.90;;;;;;5073769;28;20188;-83
2021/12/07 05:34:30;;;;;;;28.85;17.58;;;1.10;99.90;;;;;;5073420;28;20536;-83
2021/12/07 05:34:50;;;;;;;28.42;17.35;;;0.80;99.90;;;;;;5073863;28;20185;-84
2021/12/07 05:40:06;;;;;;;31.98;18.90;;;0.70;99.90;;;;;;5073679;28;20203;-83
2021/12/07 05:42:36;;;;;;;27.23;16.52;;;0.60;99.90;;;;;;5073434;28;20235;-83
2021/12/07 05:45:05;;;;;;;32.60;19.15;;;0.60;99.90;;;;;;5072525;28;20252;-85
2021/12/07 05:47:32;;;;;;;32.33;19.17;;;0.50;99.90;;;;;;5073136;28;20530;-84
2021/12/07 05:49:58;;;;;;;35.55;20.30;;;0.80;99.90;;;;;;5073499;28;20225;-84
2021/12/07 05:52:25;;;;;;;36.15;20.92;;;1.50;99.90;;;;;;5057258;28;20227;-84
2021/12/07 05:54:51;;;;;;;32.55;19.58;;;1.70;99.90;;;;;;5073669;28;20250;-87
2021/12/07 05:57:18;;;;;;;40.33;20.48;;;0.50;99.90;;;;;;5073594;28;20185;-87
2021/12/07 05:59:46;;;;;;;32.95;20.73;;;0.50;99.90;;;;;;5073446;28;20664;-86
2021/12/07 06:02:13;;;;;;;30.90;19.85;;;0.60;99.90;;;;;;5073494;28;20181;-82
2021/12/07 06:04:40;;;;;;;33.13;20.50;;;0.40;99.90;;;;;;5073544;28;20209;-83
2021/12/07 06:07:09;;;;;;;33.50;20.17;;;0.40;99.90;;;;;;5073182;28;20220;-83
2021/12/07 06:09:39;;;;;;;34.03;20.10;;;0.40;99.90;;;;;;5073150;28;20219;-84
2021/12/07 06:12:06;;;;;;;31.42;19.63;;;0.40;99.90;;;;;;5073156;28;20556;-83
2021/12/07 06:14:40;;;;;;;35.38;21.27;;;0.30;99.90;;;;;;5073309;28;20235;-83
2021/12/07 06:17:08;;;;;;;32.30;19.52;;;0.40;99.90;;;;;;5073343;28;20185;-82
2021/12/07 06:19:35;;;;;;;30.75;20.30;;;0.30;99.90;;;;;;5072712;28;20238;-82
2021/12/07 06:22:02;;;;;;;34.13;19.88;;;0.30;99.90;;;;;;5072838;28;20224;-83
2021/12/07 06:24:28;;;;;;;39.13;20.45;;;0.40;99.90;;;;;;5072517;28;20299;-84
2021/12/07 06:26:55;;;;;;;38.78;19.92;;;0.20;99.90;;;;;;5073091;28;20224;-83
2021/12/07 06:29:22;;;;;;;39.38;22.05;;;0.20;99.90;;;;;;5072897;28;20268;-86
2021/12/07 06:31:49;;;;;;;38.33;22.58;;;0.20;99.90;;;;;;5073719;28;20618;-85
2021/12/07 06:34:17;;;;;;;35.05;20.20;;;0.80;99.90;;;;;;5073354;28;20291;-85
2021/12/07 06:36:43;;;;;;;35.50;21.23;;;0.00;99.90;;;;;;5073187;28;20235;-85
2021/12/07 06:39:10;;;;;;;38.80;23.15;;;0.10;99.90;;;;;;5072581;28;20212;-86
2021/12/07 06:41:37;;;;;;;37.55;21.77;;;0.20;99.90;;;;;;5073407;28;20272;-85
2021/12/07 06:44:04;;;;;;;38.65;23.63;;;0.00;99.90;;;;;;5073033;28;20212;-85
2021/12/07 06:46:31;;;;;;;45.38;22.88;;;0.20;99.90;;;;;;5072889;28;20208;-85
2021/12/07 06:48:58;;;;;;;39.35;22.13;;;0.30;99.90;;;;;;5072511;28;20217;-84
2021/12/07 06:51:28;;;;;;;38.60;21.30;;;0.30;99.90;;;;;;5072487;28;20197;-84
2021/12/07 06:53:55;;;;;;;33.15;20.75;;;0.30;99.90;;;;;;5072831;28;20242;-86
2021/12/07 06:56:21;;;;;;;36.50;22.15;;;0.30;99.90;;;;;;5075894;28;20189;-86
2021/12/07 06:58:48;;;;;;;38.47;21.95;;;-0.10;99.90;;;;;;5077090;28;20251;-85
2021/12/07 07:01:15;;;;;;;36.95;21.20;;;0.30;99.90;;;;;;5076363;28;20672;-88
2021/12/07 07:03:42;;;;;;;36.22;22.30;;;1.10;99.90;;;;;;5076678;28;20189;-88
2021/12/07 07:06:09;;;;;;;35.40;21.30;;;0.40;99.90;;;;;;5076549;28;20311;-85
2021/12/07 07:08:37;;;;;;;37.22;23.50;;;0.50;99.90;;;;;;5077112;28;20185;-83
2021/12/07 07:11:05;;;;;;;39.25;22.08;;;0.50;99.90;;;;;;5076675;28;20664;-84
2021/12/07 07:13:32;;;;;;;37.47;22.90;;;0.60;99.90;;;;;;5076165;28;20280;-82
2021/12/07 07:15:59;;;;;;;37.22;21.58;;;0.60;99.90;;;;;;5076211;28;20276;-83
2021/12/07 07:18:26;;;;;;;41.85;23.70;;;0.60;99.90;;;;;;5060027;28;20205;-81
2021/12/07 07:20:54;;;;;;;39.45;24.17;;;0.70;99.90;;;;;;5073444;28;20469;-82
2021/12/07 07:23:21;;;;;;;37.00;21.83;;;0.80;99.90;;;;;;5075847;28;20190;-83
2021/12/07 07:25:49;;;;;;;35.33;20.55;;;0.80;99.90;;;;;;5075683;28;20640;-83
2021/12/07 07:28:16;;;;;;;33.85;21.50;;;0.70;99.90;;;;;;5075474;28;20538;-82
2021/12/07 07:30:43;;;;;;;37.50;21.70;;;0.80;99.90;;;;;;5075617;28;20185;-83
2021/12/07 07:33:09;;;;;;;34.38;20.75;;;0.90;99.90;;;;;;5075885;28;20185;-83
2021/12/07 07:35:36;;;;;;;30.90;19.88;;;0.90;99.90;;;;;;5075437;28;20217;-84
2021/12/07 07:38:03;;;;;;;33.50;19.33;;;1.00;99.90;;;;;;5075386;28;20236;-83
2021/12/07 07:40:29;;;;;;;29.48;18.85;;;1.10;99.90;;;;;;5075678;28;20522;-83
2021/12/07 07:42:58;;;;;;;30.27;18.65;;;1.10;99.90;;;;;;5075449;28;20647;-83
2021/12/07 07:45:24;;;;;;;36.03;20.95;;;1.20;99.90;;;;;;5075967;28;20750;-83
2021/12/07 07:47:51;;;;;;;30.25;19.23;;;1.20;99.90;;;;;;5075664;28;20216;-82
2021/12/07 07:50:20;;;;;;;31.45;18.98;;;1.20;99.90;;;;;;5075532;28;20584;-82
2021/12/07 07:52:47;;;;;;;32.65;18.95;;;1.20;99.90;;;;;;5075740;28;20185;-84
2021/12/07 07:55:14;;;;;;;32.22;19.33;;;1.30;99.90;;;;;;5075541;28;20243;-88
2021/12/07 07:57:41;;;;;;;37.35;20.60;;;1.40;99.90;;;;;;5075750;28;20200;-88
2021/12/07 08:00:13;;;;;;;29.48;19.92;;;1.50;99.90;;;;;;5075326;28;20706;-85
2021/12/07 08:02:40;;;;;;;30.63;18.88;;;1.50;99.90;;;;;;5075070;28;20186;-85
2021/12/07 08:05:07;;;;;;;35.15;19.63;;;1.50;99.90;;;;;;5074894;28;20252;-85
2021/12/07 08:07:33;;;;;;;31.58;19.35;;;1.60;99.90;;;;;;5074287;28;20740;-84
2021/12/07 08:10:00;;;;;;;35.28;20.38;;;1.60;99.90;;;;;;5075669;28;20264;-84
2021/12/07 08:12:27;;;;;;;26.55;18.00;;;1.70;99.90;;;;;;5075414;28;20207;-84
2021/12/07 08:14:54;;;;;;;28.77;19.88;;;1.70;99.90;;;;;;5075057;28;20185;-85
2021/12/07 08:17:22;;;;;;;29.13;17.15;;;1.00;99.90;;;;;;5075817;28;20191;-85
2021/12/07 08:19:48;;;;;;;28.80;17.98;;;1.70;99.90;;;;;;5075663;28;20209;-86
2021/12/07 08:22:15;;;;;;;29.00;18.25;;;1.70;99.90;;;;;;5075220;28;20665;-88
2021/12/07 08:24:42;;;;;;;32.75;18.50;;;2.40;99.90;;;;;;5075183;28;20258;-88
2021/12/07 08:27:08;;;;;;;27.85;16.90;;;1.70;99.90;;;;;;5075121;28;20231;-85
2021/12/07 08:29:35;;;;;;;29.23;18.20;;;1.70;99.90;;;;;;5074828;28;20217;-85
2021/12/07 08:32:01;;;;;;;27.83;18.98;;;2.40;99.90;;;;;;5075155;28;20285;-84
2021/12/07 08:34:29;;;;;;;31.25;19.35;;;1.80;99.90;;;;;;5075580;28;20213;-84
2021/12/07 08:36:56;;;;;;;32.17;19.55;;;1.80;99.90;;;;;;5075253;28;20280;-84
2021/12/07 08:39:22;;;;;;;26.70;17.88;;;1.80;99.90;;;;;;5074968;28;20249;-84
2021/12/07 08:41:49;;;;;;;28.55;17.75;;;1.80;99.90;;;;;;5074626;28;20276;-84
2021/12/07 08:44:16;;;;;;;31.02;19.65;;;1.80;99.90;;;;;;5074538;28;20280;-84
2021/12/07 08:46:42;;;;;;;25.75;18.17;;;1.80;99.90;;;;;;5075323;28;20190;-86
2021/12/07 08:49:48;;;;;;;34.55;18.17;;;1.90;99.90;;;;;;5075252;28;20224;-85
2021/12/07 08:52:16;;;;;;;27.80;17.17;;;2.70;99.90;;;;;;4991292;28;20290;-86
2021/12/07 09:00:10;;;;;;;26.88;17.30;;;1.90;99.90;;;;;;5074961;28;20195;-88
2021/12/07 09:02:37;;;;;;;25.77;17.15;;;1.90;99.90;;;;;;5060516;28;20193;-88
2021/12/07 09:05:04;;;;;;;26.75;16.55;;;3.00;99.90;;;;;;5074197;28;20217;-88
2021/12/07 09:07:32;;;;;;;31.77;18.40;;;1.90;99.90;;;;;;5074515;28;20193;-88
2021/12/07 09:09:59;;;;;;;28.17;18.33;;;1.90;99.90;;;;;;5075206;28;20216;-88
2021/12/07 09:12:25;;;;;;;24.42;15.82;;;1.90;99.90;;;;;;5058080;28;20223;-84
2021/12/07 09:14:53;;;;;;;31.02;17.95;;;2.00;99.90;;;;;;5074426;28;20227;-85
2021/12/07 09:17:20;;;;;;;28.08;17.13;;;2.00;99.90;;;;;;5073853;28;20197;-85
2021/12/07 09:19:47;;;;;;;33.40;19.23;;;1.90;99.90;;;;;;5072498;28;20188;-84
2021/12/07 09:22:14;;;;;;;28.23;18.60;;;1.90;99.90;;;;;;5074112;28;20239;-85
2021/12/07 09:24:42;;;;;;;31.70;18.73;;;1.90;99.90;;;;;;5074172;28;20189;-85
2021/12/07 09:27:09;;;;;;;29.60;17.85;;;2.00;99.90;;;;;;5073649;28;20206;-84
2021/12/07 09:29:36;;;;;;;25.55;17.83;;;2.10;99.90;;;;;;5073518;28;20267;-84
2021/12/07 09:32:04;;;;;;;26.70;17.20;;;2.70;99.90;;;;;;5073452;28;20700;-84
2021/12/07 09:34:30;;;;;;;26.30;17.10;;;2.20;99.90;;;;;;5073725;28;20188;-85
2021/12/07 09:36:57;;;;;;;25.27;17.20;;;2.30;99.90;;;;;;5073269;28;20217;-84
2021/12/07 09:39:24;;;;;;;29.25;16.90;;;2.80;99.90;;;;;;5073234;28;20240;-85
2021/12/07 09:41:52;;;;;;;27.95;18.25;;;2.40;99.90;;;;;;5073518;28;20271;-86
2021/12/07 09:44:19;;;;;;;33.50;18.33;;;2.30;99.90;;;;;;5073998;28;20189;-76
2021/12/07 09:46:45;;;;;;;32.75;18.52;;;2.30;99.90;;;;;;5072802;28;20301;-76
2021/12/07 09:49:12;;;;;;;24.02;17.30;;;2.40;99.90;;;;;;5073042;28;20212;-76
2021/12/07 09:51:40;;;;;;;31.13;17.60;;;2.40;99.90;;;;;;5073116;28;20220;-76
2021/12/07 09:54:08;;;;;;;28.30;18.25;;;2.40;99.90;;;;;;5072969;28;20281;-76
2021/12/07 09:56:36;;;;;;;28.35;18.00;;;2.40;99.90;;;;;;5072889;28;20181;-76
2021/12/07 09:59:07;;;;;;;29.05;17.35;;;2.40;99.90;;;;;;5072818;28;20280;-76
2021/12/07 10:01:33;;;;;;;29.08;19.00;;;2.40;99.90;;;;;;5072792;28;20280;-76
2021/12/07 10:04:00;;;;;;;26.42;17.33;;;2.50;99.90;;;;;;5072575;28;20736;-76
2021/12/07 10:06:27;;;;;;;26.95;17.65;;;2.50;99.90;;;;;;5072664;28;20243;-76
2021/12/07 10:08:54;;;;;;;26.08;17.85;;;2.50;99.90;;;;;;5072720;28;20648;-76
2021/12/07 10:11:20;;;;;;;30.58;17.88;;;2.60;99.90;;;;;;5072510;28;20268;-76
2021/12/07 10:13:50;;;;;;;29.55;18.60;;;2.50;99.90;;;;;;5072435;28;20268;-76
2021/12/07 10:16:22;;;;;;;25.35;17.02;;;2.50;99.90;;;;;;5072770;28;20251;-76
2021/12/07 10:18:48;;;;;;;24.05;17.08;;;2.60;99.90;;;;;;5072638;28;20209;-76
2021/12/07 10:21:18;;;;;;;29.08;17.25;;;2.60;99.90;;;;;;5072518;28;20300;-76
2021/12/07 10:23:49;;;;;;;30.00;17.95;;;2.60;99.90;;;;;;5072430;28;20188;-76
2021/12/07 10:26:18;;;;;;;27.85;19.15;;;2.60;99.90;;;;;;5072332;28;20320;-76
2021/12/07 10:28:46;;;;;;;33.78;19.00;;;2.70;99.90;;;;;;5072552;28;20209;-76
2021/12/07 10:31:35;;;;;;;57.85;18.95;;;2.70;99.90;;;;;;5072193;28;20281;-76
2021/12/07 10:34:04;;;;;;;26.67;17.40;;;2.70;99.90;;;;;;5072318;28;20217;-76
2021/12/07 10:36:33;;;;;;;27.05;17.73;;;2.80;99.90;;;;;;5072321;28;20268;-76
2021/12/07 10:39:11;;;;;;;30.77;18.60;;;2.80;99.90;;;;;;5072102;28;20213;-76
2021/12/07 10:41:42;;;;;;;42.05;25.52;;;2.80;99.90;;;;;;5072510;28;20192;-76
2021/12/07 10:44:10;;;;;;;34.47;22.00;;;2.70;99.90;;;;;;5072162;28;20185;-76
2021/12/07 10:46:48;;;;;;;35.58;20.00;;;2.80;99.90;;;;;;5072161;28;20291;-76
2021/12/07 10:49:34;;;;;;;27.80;17.92;;;2.70;99.90;;;;;;5072037;28;20664;-76
2021/12/07 10:52:06;;;;;;;31.73;19.13;;;2.80;99.90;;;;;;5072419;28;20224;-76
2021/12/07 10:54:35;;;;;;;29.80;19.38;;;2.80;99.90;;;;;;5072341;28;20614;-76
2021/12/07 10:57:04;;;;;;;28.92;19.23;;;2.80;99.90;;;;;;5072157;28;20232;-76
2021/12/07 10:59:32;;;;;;;33.45;19.63;;;2.80;99.90;;;;;;5071917;28;20224;-76
2021/12/07 11:02:12;;;;;;;35.55;21.48;;;2.80;99.90;;;;;;5072329;28;20224;-76
2021/12/07 11:04:40;;;;;;;31.20;19.00;;;2.90;99.90;;;;;;5072305;28;20224;-77
2021/12/07 11:07:10;;;;;;;32.45;20.27;;;3.00;99.90;;;;;;5072096;28;20603;-77
2021/12/07 11:09:46;;;;;;;31.60;19.92;;;2.90;99.90;;;;;;5072083;28;20182;-76
2021/12/07 11:12:17;;;;;;;30.73;18.80;;;2.90;99.90;;;;;;5072532;28;20189;-77
2021/12/07 11:14:50;;;;;;;34.67;19.35;;;2.90;99.90;;;;;;5072680;28;20205;-76
2021/12/07 11:17:20;;;;;;;29.83;18.70;;;2.90;99.90;;;;;;5072095;28;20189;-76
2021/12/07 11:19:47;;;;;;;34.10;20.23;;;2.90;99.90;;;;;;5072272;28;20186;-76
2021/12/07 11:22:20;;;;;;;30.95;19.17;;;2.90;99.90;;;;;;5072417;28;20235;-76
2021/12/07 11:24:48;;;;;;;35.65;20.83;;;2.80;99.90;;;;;;5064704;28;20580;-76
2021/12/07 11:30:05;;;;;;;30.50;18.73;;;2.90;99.90;;;;;;5072056;28;20196;-76
2021/12/07 11:32:34;;;;;;;34.92;21.73;;;2.90;99.90;;;;;;5072259;28;20192;-77
2021/12/07 11:35:11;;;;;;;33.17;20.15;;;2.90;99.90;;;;;;5071796;28;20235;-87
2021/12/07 11:37:39;;;;;;;32.65;20.73;;;2.90;99.90;;;;;;5071662;28;20721;-85
2021/12/07 11:40:09;;;;;;;33.75;20.80;;;2.90;99.90;;;;;;5072092;28;20194;-86
2021/12/07 11:42:39;;;;;;;33.15;20.00;;;2.90;99.90;;;;;;5074116;28;20553;-86
2021/12/07 11:45:10;;;;;;;33.22;20.42;;;3.00;99.90;;;;;;5076129;28;20590;-86
2021/12/07 11:47:40;;;;;;;32.17;20.15;;;3.10;99.90;;;;;;5075699;28;20221;-86
2021/12/07 11:50:26;;;;;;;34.78;22.17;;;3.00;99.90;;;;;;5075836;28;20595;-87
2021/12/07 11:52:56;;;;;;;33.15;20.40;;;3.10;99.90;;;;;;5075413;28;20695;-86
2021/12/07 11:55:24;;;;;;;28.65;19.40;;;3.10;99.90;;;;;;5075754;28;20212;-86
2021/12/07 11:57:51;;;;;;;31.88;20.40;;;3.20;99.90;;;;;;5075773;28;20227;-86
2021/12/07 12:00:23;;;;;;;36.75;21.77;;;3.10;99.90;;;;;;5075255;28;20612;-86
2021/12/07 12:02:51;;;;;;;33.13;21.15;;;3.20;99.90;;;;;;5075591;28;20272;-86
2021/12/07 12:05:18;;;;;;;35.72;21.23;;;3.20;99.90;;;;;;5075032;28;20280;-86
2021/12/07 12:07:46;;;;;;;35.80;22.13;;;3.10;99.90;;;;;;5075658;28;20185;-86
2021/12/07 12:10:14;;;;;;;38.83;22.95;;;3.20;99.90;;;;;;5067966;28;20189;-86
2021/12/07 12:13:07;;;;;;;31.92;20.73;;;3.20;99.90;;;;;;5075136;28;20189;-86
2021/12/07 12:15:54;;;;;;;37.75;22.27;;;3.20;99.90;;;;;;5075274;28;20193;-86
2021/12/07 12:18:36;;;;;;;33.35;22.10;;;3.20;99.90;;;;;;5074187;28;20189;-86
2021/12/07 12:21:12;;;;;;;33.00;22.50;;;3.10;99.90;;;;;;5074973;28;20235;-86
2021/12/07 12:23:50;;;;;;;36.70;21.20;;;3.10;99.90;;;;;;5074914;28;20238;-86
2021/12/07 12:26:23;;;;;;;38.50;22.88;;;3.10;99.90;;;;;;5073486;28;20236;-86
2021/12/07 12:28:54;;;;;;;34.65;20.48;;;3.10;99.90;;;;;;5074652;28;20193;-86
2021/12/07 12:31:47;;;;;;;34.20;20.42;;;3.10;99.90;;;;;;5074377;28;20268;-85
2021/12/07 12:34:20;;;;;;;42.05;22.50;;;3.00;99.90;;;;;;5073323;28;20189;-86
2021/12/07 12:37:04;;;;;;;35.13;19.88;;;3.00;99.90;;;;;;5074666;28;20228;-86
2021/12/07 12:39:43;;;;;;;35.13;20.27;;;2.90;99.90;;;;;;5074425;28;20216;-87
2021/12/07 12:42:10;;;;;;;36.97;20.83;;;3.00;99.90;;;;;;5074543;28;20185;-87
2021/12/07 12:44:38;;;;;;;31.83;19.02;;;3.00;99.90;;;;;;5074176;28;20276;-86
2021/12/07 12:47:07;;;;;;;35.30;21.65;;;3.00;99.90;;;;;;5074183;28;20212;-87
2021/12/07 12:49:38;;;;;;;36.83;21.13;;;3.00;99.90;;;;;;5074108;28;20197;-87
2021/12/07 12:52:05;;;;;;;31.17;21.35;;;3.10;99.90;;;;;;5074604;28;20372;-87
2021/12/07 12:54:40;;;;;;;34.15;20.15;;;3.10;99.90;;;;;;5074323;28;20637;-87
2021/12/07 12:57:12;;;;;;;36.40;21.80;;;3.20;99.90;;;;;;5074454;28;20273;-86
2021/12/07 12:59:39;;;;;;;35.55;21.90;;;3.20;99.90;;;;;;5074513;28;20275;-87
2021/12/07 13:02:07;;;;;;;35.03;19.85;;;3.20;99.90;;;;;;5074073;28;20280;-87
2021/12/07 13:04:34;;;;;;;35.47;21.08;;;3.20;99.90;;;;;;5073682;28;20272;-87
2021/12/07 13:07:23;;;;;;;35.60;20.67;;;3.20;99.90;;;;;;5073951;28;20266;-87
2021/12/07 13:09:55;;;;;;;31.73;19.40;;;3.20;99.90;;;;;;5074378;28;20556;-86
2021/12/07 13:12:23;;;;;;;29.20;18.83;;;3.20;99.90;;;;;;5073775;28;20273;-87
2021/12/07 13:15:00;;;;;;;35.33;19.40;;;3.10;99.90;;;;;;5073724;28;20709;-87
2021/12/07 13:17:32;;;;;;;32.13;19.23;;;2.80;99.90;;;;;;5073762;28;20216;-87
2021/12/07 13:20:10;;;;;;;35.25;20.50;;;3.10;99.90;;;;;;5073801;28;20217;-87
2021/12/07 13:22:39;;;;;;;45.20;22.30;;;3.10;99.90;;;;;;5060603;28;20217;-87
2021/12/07 13:25:08;;;;;;;39.10;21.65;;;3.10;99.90;;;;;;5074113;28;20249;-87
2021/12/07 13:27:35;;;;;;;31.15;19.58;;;3.10;99.90;;;;;;5073494;28;20296;-87
2021/12/07 13:30:05;;;;;;;28.88;18.13;;;2.80;99.90;;;;;;5073297;28;20181;-86
2021/12/07 13:32:33;;;;;;;36.88;20.73;;;3.10;99.90;;;;;;5073397;28;20228;-86
2021/12/07 13:35:01;;;;;;;31.85;18.52;;;3.10;99.90;;;;;;5073669;28;20714;-86
2021/12/07 13:37:46;;;;;;;37.53;19.58;;;3.00;99.90;;;;;;5073222;28;20231;-86
2021/12/07 13:40:20;;;;;;;31.48;18.77;;;3.00;99.90;;;;;;5071511;28;20714;-86
2021/12/07 13:42:50;;;;;;;30.25;17.65;;;3.00;99.90;;;;;;5072948;28;20260;-87
2021/12/07 13:45:19;;;;;;;30.27;18.77;;;3.00;99.90;;;;;;5072997;28;20189;-87
2021/12/07 13:47:49;;;;;;;33.35;19.10;;;3.20;99.90;;;;;;5072516;28;20305;-87
2021/12/07 13:50:19;;;;;;;34.08;21.00;;;2.80;99.90;;;;;;5072684;28;20711;-87
2021/12/07 13:52:48;;;;;;;36.38;20.70;;;2.80;99.90;;;;;;5072508;28;20277;-87
2021/12/07 13:55:17;;;;;;;33.08;20.10;;;2.70;99.90;;;;;;5072390;28;20220;-86
2021/12/07 13:57:48;;;;;;;40.97;21.90;;;2.70;99.90;;;;;;5072923;28;20746;-87
2021/12/07 14:00:17;;;;;;;30.38;18.70;;;2.70;99.90;;;;;;5071419;28;20656;-87